sensor_id;sensor_type;location;lat;lon;timestamp;pressure;altitude;pressure_sealevel;temperature;humidity
23261;BME280;11799;47.740;-3.390;2023-03-02T00:04:20;102170.19;;;3.73;71.23
23261;BME280;11799;47.740;-3.390;2023-03-02T00:06:47;102172.91;;;3.69;71.40
23261;BME280;11799;47.740;-3.390;2023-03-02T00:09:14;102177.38;;;3.65;71.84
23261;BME280;11799;47.740;-3.390;2023-03-02T00:11:40;102175.63;;;3.65;71.97
23261;BME280;11799;47.740;-3.390;2023-03-02T00:14:06;102160.13;;;3.59;71.82
23261;BME280;11799;47.740;-3.390;2023-03-02T00:16:32;102167.81;;;3.64;72.02
23261;BME280;11799;47.740;-3.390;2023-03-02T00:18:58;102173.13;;;3.61;72.14
23261;BME280;11799;47.740;-3.390;2023-03-02T00:21:23;102170.63;;;3.56;72.26
23261;BME280;11799;47.740;-3.390;2023-03-02T00:23:50;102155.81;;;3.57;72.37
23261;BME280;11799;47.740;-3.390;2023-03-02T00:26:16;102159.41;;;3.53;72.78
23261;BME280;11799;47.740;-3.390;2023-03-02T00:28:43;102156.81;;;3.53;72.71
23261;BME280;11799;47.740;-3.390;2023-03-02T00:31:09;102159.53;;;3.48;72.64
23261;BME280;11799;47.740;-3.390;2023-03-02T00:33:34;102156.03;;;3.49;73.18
23261;BME280;11799;47.740;-3.390;2023-03-02T00:36:01;102155.19;;;3.49;72.51
23261;BME280;11799;47.740;-3.390;2023-03-02T00:38:26;102157.91;;;3.46;72.88
23261;BME280;11799;47.740;-3.390;2023-03-02T00:40:53;102162.34;;;3.42;72.74
23261;BME280;11799;47.740;-3.390;2023-03-02T00:43:19;102150.28;;;3.38;73.00
23261;BME280;11799;47.740;-3.390;2023-03-02T00:45:47;102155.44;;;3.40;72.88
23261;BME280;11799;47.740;-3.390;2023-03-02T00:48:13;102158.03;;;3.41;73.15
23261;BME280;11799;47.740;-3.390;2023-03-02T00:50:38;102154.59;;;3.39;73.52
23261;BME280;11799;47.740;-3.390;2023-03-02T00:53:08;102159.00;;;3.37;73.45
23261;BME280;11799;47.740;-3.390;2023-03-02T00:55:35;102151.28;;;3.33;73.40
23261;BME280;11799;47.740;-3.390;2023-03-02T00:58:01;102151.22;;;3.36;73.12
23261;BME280;11799;47.740;-3.390;2023-03-02T01:00:29;102149.53;;;3.33;73.47
23261;BME280;11799;47.740;-3.390;2023-03-02T01:02:58;102146.06;;;3.33;73.44
23261;BME280;11799;47.740;-3.390;2023-03-02T01:05:24;102148.72;;;3.31;73.73
23261;BME280;11799;47.740;-3.390;2023-03-02T01:07:50;102149.56;;;3.31;73.43
23261;BME280;11799;47.740;-3.390;2023-03-02T01:10:16;102149.63;;;3.30;73.75
23261;BME280;11799;47.740;-3.390;2023-03-02T01:12:41;102143.56;;;3.28;73.80
23261;BME280;11799;47.740;-3.390;2023-03-02T01:15:08;102146.19;;;3.28;73.33
23261;BME280;11799;47.740;-3.390;2023-03-02T01:17:34;102152.34;;;3.25;73.67
23261;BME280;11799;47.740;-3.390;2023-03-02T01:20:00;102150.66;;;3.23;73.66
23261;BME280;11799;47.740;-3.390;2023-03-02T01:22:25;102147.25;;;3.21;73.62
23261;BME280;11799;47.740;-3.390;2023-03-02T01:24:51;102147.41;;;3.15;73.68
23261;BME280;11799;47.740;-3.390;2023-03-02T01:27:18;102146.59;;;3.13;73.43
23261;BME280;11799;47.740;-3.390;2023-03-02T01:29:43;102142.34;;;3.09;73.07
23261;BME280;11799;47.740;-3.390;2023-03-02T01:32:09;102143.22;;;3.08;73.75
23261;BME280;11799;47.740;-3.390;2023-03-02T01:34:35;102139.75;;;3.07;73.61
23261;BME280;11799;47.740;-3.390;2023-03-02T01:37:00;102140.63;;;3.08;73.55
23261;BME280;11799;47.740;-3.390;2023-03-02T01:39:26;102133.72;;;3.05;74.08
23261;BME280;11799;47.740;-3.390;2023-03-02T01:41:51;102128.53;;;3.04;73.95
23261;BME280;11799;47.740;-3.390;2023-03-02T01:44:37;102135.56;;;3.02;73.70
23261;BME280;11799;47.740;-3.390;2023-03-02T01:47:05;102132.97;;;3.00;74.11
23261;BME280;11799;47.740;-3.390;2023-03-02T01:49:45;102133.09;;;2.95;73.96
23261;BME280;11799;47.740;-3.390;2023-03-02T01:52:12;102130.53;;;2.94;73.91
23261;BME280;11799;47.740;-3.390;2023-03-02T01:54:40;102127.13;;;2.90;73.86
23261;BME280;11799;47.740;-3.390;2023-03-02T01:57:07;102126.44;;;2.85;74.11
23261;BME280;11799;47.740;-3.390;2023-03-02T01:59:35;102129.94;;;2.84;74.19
23261;BME280;11799;47.740;-3.390;2023-03-02T02:02:06;102122.16;;;2.83;74.54
23261;BME280;11799;47.740;-3.390;2023-03-02T02:04:35;102121.34;;;2.79;74.45
23261;BME280;11799;47.740;-3.390;2023-03-02T02:07:03;102120.56;;;2.76;74.21
23261;BME280;11799;47.740;-3.390;2023-03-02T02:09:33;102114.53;;;2.74;74.63
23261;BME280;11799;47.740;-3.390;2023-03-02T02:11:59;102109.41;;;2.71;74.31
23261;BME280;11799;47.740;-3.390;2023-03-02T02:14:25;102104.19;;;2.71;74.28
23261;BME280;11799;47.740;-3.390;2023-03-02T02:16:51;102098.22;;;2.65;74.40
23261;BME280;11799;47.740;-3.390;2023-03-02T02:19:28;102096.47;;;2.66;75.06
23261;BME280;11799;47.740;-3.390;2023-03-02T02:21:57;102092.97;;;2.67;75.05
23261;BME280;11799;47.740;-3.390;2023-03-02T02:24:37;102095.63;;;2.65;74.79
23261;BME280;11799;47.740;-3.390;2023-03-02T02:27:06;102093.03;;;2.64;75.21
23261;BME280;11799;47.740;-3.390;2023-03-02T02:29:36;102086.03;;;2.66;75.30
23261;BME280;11799;47.740;-3.390;2023-03-02T02:32:05;102091.25;;;2.66;75.46
23261;BME280;11799;47.740;-3.390;2023-03-02T02:34:52;102094.75;;;2.65;74.91
23261;BME280;11799;47.740;-3.390;2023-03-02T02:37:26;102082.59;;;2.64;75.75
23261;BME280;11799;47.740;-3.390;2023-03-02T02:39:53;102085.19;;;2.65;75.63
23261;BME280;11799;47.740;-3.390;2023-03-02T02:42:26;102073.03;;;2.64;75.32
23261;BME280;11799;47.740;-3.390;2023-03-02T02:44:56;102078.34;;;2.60;75.45
23261;BME280;11799;47.740;-3.390;2023-03-02T02:47:23;102074.06;;;2.57;75.58
23261;BME280;11799;47.740;-3.390;2023-03-02T02:49:51;102073.31;;;2.52;75.28
23261;BME280;11799;47.740;-3.390;2023-03-02T02:52:21;102069.09;;;2.48;75.23
23261;BME280;11799;47.740;-3.390;2023-03-02T02:54:49;102067.41;;;2.46;75.53
23261;BME280;11799;47.740;-3.390;2023-03-02T02:57:17;102072.69;;;2.43;75.35
23261;BME280;11799;47.740;-3.390;2023-03-02T02:59:47;102074.50;;;2.39;74.99
23261;BME280;11799;47.740;-3.390;2023-03-02T03:02:17;102077.97;;;2.40;75.31
23261;BME280;11799;47.740;-3.390;2023-03-02T03:04:44;102070.19;;;2.38;75.22
23261;BME280;11799;47.740;-3.390;2023-03-02T03:07:17;102071.91;;;2.39;75.29
23261;BME280;11799;47.740;-3.390;2023-03-02T03:09:47;102064.09;;;2.39;75.32
23261;BME280;11799;47.740;-3.390;2023-03-02T03:12:16;102064.13;;;2.38;75.93
23261;BME280;11799;47.740;-3.390;2023-03-02T03:14:44;102062.41;;;2.37;75.33
23261;BME280;11799;47.740;-3.390;2023-03-02T03:17:10;102060.66;;;2.37;76.16
23261;BME280;11799;47.740;-3.390;2023-03-02T03:19:44;102058.91;;;2.38;76.01
23261;BME280;11799;47.740;-3.390;2023-03-02T03:22:11;102056.25;;;2.39;76.18
23261;BME280;11799;47.740;-3.390;2023-03-02T03:24:38;102055.44;;;2.37;75.63
23261;BME280;11799;47.740;-3.390;2023-03-02T03:27:06;102052.16;;;2.30;75.71
23261;BME280;11799;47.740;-3.390;2023-03-02T03:29:37;102054.81;;;2.29;75.36
23261;BME280;11799;47.740;-3.390;2023-03-02T03:32:05;102061.72;;;2.30;75.81
23261;BME280;11799;47.740;-3.390;2023-03-02T03:34:32;102055.66;;;2.29;75.48
23261;BME280;11799;47.740;-3.390;2023-03-02T03:36:58;102067.88;;;2.27;75.34
23261;BME280;11799;47.740;-3.390;2023-03-02T03:39:29;102059.19;;;2.27;75.43
23261;BME280;11799;47.740;-3.390;2023-03-02T03:41:55;102065.34;;;2.24;75.76
23261;BME280;11799;47.740;-3.390;2023-03-02T03:44:21;102072.34;;;2.22;75.40
23261;BME280;11799;47.740;-3.390;2023-03-02T03:46:48;102072.41;;;2.19;75.45
23261;BME280;11799;47.740;-3.390;2023-03-02T03:49:13;102075.03;;;2.18;75.51
23261;BME280;11799;47.740;-3.390;2023-03-02T03:51:39;102069.91;;;2.15;75.38
23261;BME280;11799;47.740;-3.390;2023-03-02T03:54:06;102068.16;;;2.15;74.94
23261;BME280;11799;47.740;-3.390;2023-03-02T03:56:40;102070.78;;;2.14;74.84
23261;BME280;11799;47.740;-3.390;2023-03-02T03:59:09;102066.50;;;2.11;75.27
23261;BME280;11799;47.740;-3.390;2023-03-02T04:01:43;102066.53;;;2.10;74.86
23261;BME280;11799;47.740;-3.390;2023-03-02T04:04:13;102064.94;;;2.04;74.45
23261;BME280;11799;47.740;-3.390;2023-03-02T04:06:39;102066.75;;;2.01;74.30
23261;BME280;11799;47.740;-3.390;2023-03-02T04:09:05;102074.50;;;2.04;74.57
23261;BME280;11799;47.740;-3.390;2023-03-02T04:11:34;102071.03;;;2.03;74.64
23261;BME280;11799;47.740;-3.390;2023-03-02T04:14:00;102069.31;;;2.02;74.52
23261;BME280;11799;47.740;-3.390;2023-03-02T04:16:27;102071.16;;;1.97;74.10
23261;BME280;11799;47.740;-3.390;2023-03-02T04:18:53;102072.91;;;1.96;74.03
23261;BME280;11799;47.740;-3.390;2023-03-02T04:21:19;102080.75;;;1.95;74.21
23261;BME280;11799;47.740;-3.390;2023-03-02T04:23:45;102077.41;;;1.90;73.84
23261;BME280;11799;47.740;-3.390;2023-03-02T04:26:10;102081.69;;;1.92;74.29
23261;BME280;11799;47.740;-3.390;2023-03-02T04:28:36;102086.91;;;1.92;73.84
23261;BME280;11799;47.740;-3.390;2023-03-02T04:31:02;102090.41;;;1.90;74.12
23261;BME280;11799;47.740;-3.390;2023-03-02T04:33:28;102092.19;;;1.88;73.89
23261;BME280;11799;47.740;-3.390;2023-03-02T04:35:53;102093.91;;;1.89;74.35
23261;BME280;11799;47.740;-3.390;2023-03-02T04:38:20;102093.09;;;1.87;74.12
23261;BME280;11799;47.740;-3.390;2023-03-02T04:40:46;102094.91;;;1.83;74.43
23261;BME280;11799;47.740;-3.390;2023-03-02T04:43:12;102100.13;;;1.83;74.54
23261;BME280;11799;47.740;-3.390;2023-03-02T04:45:37;102113.19;;;1.80;74.49
23261;BME280;11799;47.740;-3.390;2023-03-02T04:48:03;102107.03;;;1.84;74.67
23261;BME280;11799;47.740;-3.390;2023-03-02T04:50:29;102112.31;;;1.81;74.81
23261;BME280;11799;47.740;-3.390;2023-03-02T04:52:55;102109.75;;;1.80;74.89
23261;BME280;11799;47.740;-3.390;2023-03-02T04:55:23;102110.72;;;1.74;74.59
23261;BME280;11799;47.740;-3.390;2023-03-02T04:57:49;102115.00;;;1.77;74.28
23261;BME280;11799;47.740;-3.390;2023-03-02T05:00:16;102117.66;;;1.75;74.75
23261;BME280;11799;47.740;-3.390;2023-03-02T05:02:42;102117.69;;;1.74;74.61
23261;BME280;11799;47.740;-3.390;2023-03-02T05:05:15;102113.31;;;1.74;75.12
23261;BME280;11799;47.740;-3.390;2023-03-02T05:07:41;102116.06;;;1.70;74.87
23261;BME280;11799;47.740;-3.390;2023-03-02T05:10:07;102125.59;;;1.71;74.53
23261;BME280;11799;47.740;-3.390;2023-03-02T05:12:33;102126.50;;;1.68;74.94
23261;BME280;11799;47.740;-3.390;2023-03-02T05:15:20;102123.06;;;1.66;74.95
23261;BME280;11799;47.740;-3.390;2023-03-02T05:17:45;102121.38;;;1.63;75.19
23261;BME280;11799;47.740;-3.390;2023-03-02T05:20:11;102120.63;;;1.58;74.98
23261;BME280;11799;47.740;-3.390;2023-03-02T05:22:37;102121.50;;;1.57;75.27
23261;BME280;11799;47.740;-3.390;2023-03-02T05:25:03;102123.28;;;1.55;75.01
23261;BME280;11799;47.740;-3.390;2023-03-02T05:27:29;102121.63;;;1.51;75.11
23261;BME280;11799;47.740;-3.390;2023-03-02T05:29:55;102119.97;;;1.47;75.07
23261;BME280;11799;47.740;-3.390;2023-03-02T05:32:20;102120.03;;;1.44;74.86
23261;BME280;11799;47.740;-3.390;2023-03-02T05:34:46;102127.88;;;1.43;74.73
23261;BME280;11799;47.740;-3.390;2023-03-02T05:37:11;102120.13;;;1.38;74.35
23261;BME280;11799;47.740;-3.390;2023-03-02T05:39:37;102118.44;;;1.37;75.26
23261;BME280;11799;47.740;-3.390;2023-03-02T05:42:03;102120.22;;;1.33;75.43
23261;BME280;11799;47.740;-3.390;2023-03-02T05:44:30;102125.44;;;1.33;75.15
23261;BME280;11799;47.740;-3.390;2023-03-02T05:46:55;102123.75;;;1.31;75.07
23261;BME280;11799;47.740;-3.390;2023-03-02T05:49:21;102120.22;;;1.33;75.77
23261;BME280;11799;47.740;-3.390;2023-03-02T05:51:46;102116.75;;;1.35;76.38
23261;BME280;11799;47.740;-3.390;2023-03-02T05:54:12;102125.44;;;1.33;76.46
23261;BME280;11799;47.740;-3.390;2023-03-02T05:56:37;102124.59;;;1.31;76.45
23261;BME280;11799;47.740;-3.390;2023-03-02T05:59:03;102122.88;;;1.30;76.42
23261;BME280;11799;47.740;-3.390;2023-03-02T06:01:28;102123.81;;;1.28;76.30
23261;BME280;11799;47.740;-3.390;2023-03-02T06:03:54;102127.25;;;1.28;76.62
23261;BME280;11799;47.740;-3.390;2023-03-02T06:06:20;102125.53;;;1.27;76.74
23261;BME280;11799;47.740;-3.390;2023-03-02T06:08:45;102127.34;;;1.24;76.67
23261;BME280;11799;47.740;-3.390;2023-03-02T06:11:11;102129.13;;;1.22;76.68
23261;BME280;11799;47.740;-3.390;2023-03-02T06:13:37;102129.13;;;1.22;76.87
23261;BME280;11799;47.740;-3.390;2023-03-02T06:16:04;102123.97;;;1.19;76.87
23261;BME280;11799;47.740;-3.390;2023-03-02T06:18:30;102130.94;;;1.17;76.67
23261;BME280;11799;47.740;-3.390;2023-03-02T06:20:55;102122.38;;;1.13;76.74
23261;BME280;11799;47.740;-3.390;2023-03-02T06:23:21;102133.59;;;1.15;77.00
23261;BME280;11799;47.740;-3.390;2023-03-02T06:25:47;102130.13;;;1.15;77.00
23261;BME280;11799;47.740;-3.390;2023-03-02T06:28:14;102136.25;;;1.12;77.30
23261;BME280;11799;47.740;-3.390;2023-03-02T06:30:40;102136.22;;;1.14;77.18
23261;BME280;11799;47.740;-3.390;2023-03-02T06:33:07;102131.06;;;1.12;77.05
23261;BME280;11799;47.740;-3.390;2023-03-02T06:35:32;102134.56;;;1.10;76.80
23261;BME280;11799;47.740;-3.390;2023-03-02T06:37:59;102144.09;;;1.11;77.22
23261;BME280;11799;47.740;-3.390;2023-03-02T06:40:24;102139.75;;;1.11;77.12
23261;BME280;11799;47.740;-3.390;2023-03-02T06:42:50;102140.63;;;1.10;77.30
23261;BME280;11799;47.740;-3.390;2023-03-02T06:45:15;102140.63;;;1.10;77.35
23261;BME280;11799;47.740;-3.390;2023-03-02T06:47:41;102138.91;;;1.09;77.42
23261;BME280;11799;47.740;-3.390;2023-03-02T06:50:07;102139.75;;;1.11;77.70
23261;BME280;11799;47.740;-3.390;2023-03-02T06:52:33;102144.06;;;1.12;77.47
23261;BME280;11799;47.740;-3.390;2023-03-02T06:54:59;102140.63;;;1.10;77.83
23261;BME280;11799;47.740;-3.390;2023-03-02T06:57:25;102141.50;;;1.09;77.42
23261;BME280;11799;47.740;-3.390;2023-03-02T06:59:59;102140.66;;;1.09;77.87
23261;BME280;11799;47.740;-3.390;2023-03-02T07:02:25;102143.25;;;1.09;77.88
23261;BME280;11799;47.740;-3.390;2023-03-02T07:04:50;102150.19;;;1.08;77.90
23261;BME280;11799;47.740;-3.390;2023-03-02T07:07:16;102151.13;;;1.06;77.98
23261;BME280;11799;47.740;-3.390;2023-03-02T07:09:41;102147.63;;;1.07;77.38
23261;BME280;11799;47.740;-3.390;2023-03-02T07:12:07;102158.88;;;1.09;77.54
23261;BME280;11799;47.740;-3.390;2023-03-02T07:14:34;102149.34;;;1.08;77.67
23261;BME280;11799;47.740;-3.390;2023-03-02T07:17:03;102156.28;;;1.07;77.67
23261;BME280;11799;47.740;-3.390;2023-03-02T07:19:29;102153.69;;;1.07;77.80
23261;BME280;11799;47.740;-3.390;2023-03-02T07:21:54;102157.13;;;1.09;77.43
23261;BME280;11799;47.740;-3.390;2023-03-02T07:24:20;102155.31;;;1.13;77.72
23261;BME280;11799;47.740;-3.390;2023-03-02T07:26:46;102157.09;;;1.11;77.82
23261;BME280;11799;47.740;-3.390;2023-03-02T07:29:12;102163.03;;;1.16;77.97
23261;BME280;11799;47.740;-3.390;2023-03-02T07:31:37;102162.13;;;1.18;77.83
23261;BME280;11799;47.740;-3.390;2023-03-02T07:34:03;102160.34;;;1.22;78.22
23261;BME280;11799;47.740;-3.390;2023-03-02T07:36:29;102166.28;;;1.28;78.60
23261;BME280;11799;47.740;-3.390;2023-03-02T07:38:54;102160.16;;;1.32;78.78
23261;BME280;11799;47.740;-3.390;2023-03-02T07:41:20;102161.78;;;1.38;78.49
23261;BME280;11799;47.740;-3.390;2023-03-02T07:43:47;102160.88;;;1.41;78.38
23261;BME280;11799;47.740;-3.390;2023-03-02T07:46:12;102160.84;;;1.42;78.40
23261;BME280;11799;47.740;-3.390;2023-03-02T07:48:38;102166.78;;;1.50;78.78
23261;BME280;11799;47.740;-3.390;2023-03-02T07:51:05;102172.72;;;1.57;78.66
23261;BME280;11799;47.740;-3.390;2023-03-02T07:53:31;102173.53;;;1.60;78.96
23261;BME280;11799;47.740;-3.390;2023-03-02T07:55:56;102176.06;;;1.63;78.99
23261;BME280;11799;47.740;-3.390;2023-03-02T07:58:22;102180.28;;;1.71;78.42
23261;BME280;11799;47.740;-3.390;2023-03-02T08:00:48;102172.31;;;1.77;78.90
23261;BME280;11799;47.740;-3.390;2023-03-02T08:03:14;102180.84;;;1.85;78.59
23261;BME280;11799;47.740;-3.390;2023-03-02T08:05:40;102185.94;;;1.89;78.77
23261;BME280;11799;47.740;-3.390;2023-03-02T08:08:06;102190.75;;;2.09;79.08
23261;BME280;11799;47.740;-3.390;2023-03-02T08:10:35;102197.94;;;2.77;79.68
23261;BME280;11799;47.740;-3.390;2023-03-02T08:13:00;102192.88;;;3.71;78.40
23261;BME280;11799;47.740;-3.390;2023-03-02T08:15:26;102187.66;;;4.59;74.98
23261;BME280;11799;47.740;-3.390;2023-03-02T08:17:51;102191.13;;;5.39;71.27
23261;BME280;11799;47.740;-3.390;2023-03-02T08:20:17;102185.47;;;6.00;68.42
23261;BME280;11799;47.740;-3.390;2023-03-02T08:22:43;102195.84;;;6.26;66.50
23261;BME280;11799;47.740;-3.390;2023-03-02T08:25:08;102189.88;;;6.44;65.88
23261;BME280;11799;47.740;-3.390;2023-03-02T08:27:34;102191.59;;;6.45;64.21
23261;BME280;11799;47.740;-3.390;2023-03-02T08:30:00;102192.56;;;6.43;64.01
23261;BME280;11799;47.740;-3.390;2023-03-02T08:32:25;102204.13;;;6.37;64.71
23261;BME280;11799;47.740;-3.390;2023-03-02T08:34:51;102198.19;;;6.34;64.06
23261;BME280;11799;47.740;-3.390;2023-03-02T08:37:18;102205.38;;;6.28;64.12
23261;BME280;11799;47.740;-3.390;2023-03-02T08:39:43;102205.88;;;6.15;64.38
23261;BME280;11799;47.740;-3.390;2023-03-02T08:42:09;102201.66;;;6.11;64.81
23261;BME280;11799;47.740;-3.390;2023-03-02T08:44:34;102207.94;;;6.07;64.93
23261;BME280;11799;47.740;-3.390;2023-03-02T08:47:00;102210.56;;;6.07;65.47
23261;BME280;11799;47.740;-3.390;2023-03-02T08:49:25;102213.47;;;5.99;65.80
23261;BME280;11799;47.740;-3.390;2023-03-02T08:51:52;102215.34;;;5.95;66.36
23261;BME280;11799;47.740;-3.390;2023-03-02T08:54:21;102219.84;;;5.92;66.11
23261;BME280;11799;47.740;-3.390;2023-03-02T08:56:46;102205.94;;;5.88;66.72
23261;BME280;11799;47.740;-3.390;2023-03-02T08:59:13;102213.88;;;5.87;67.08
23261;BME280;11799;47.740;-3.390;2023-03-02T09:01:39;102216.59;;;5.84;67.68
23261;BME280;11799;47.740;-3.390;2023-03-02T09:04:06;102224.47;;;5.84;68.06
23261;BME280;11799;47.740;-3.390;2023-03-02T09:06:35;102226.28;;;5.82;67.80
23261;BME280;11799;47.740;-3.390;2023-03-02T09:09:02;102225.06;;;5.92;67.73
23261;BME280;11799;47.740;-3.390;2023-03-02T09:11:28;102217.84;;;5.99;68.20
23261;BME280;11799;47.740;-3.390;2023-03-02T09:13:53;102215.34;;;6.19;67.97
23261;BME280;11799;47.740;-3.390;2023-03-02T09:16:21;102207.09;;;6.51;67.88
23261;BME280;11799;47.740;-3.390;2023-03-02T09:18:48;102219.06;;;6.58;65.88
23261;BME280;11799;47.740;-3.390;2023-03-02T09:21:14;102225.00;;;6.40;66.31
23261;BME280;11799;47.740;-3.390;2023-03-02T09:23:40;102215.31;;;6.42;67.42
23261;BME280;11799;47.740;-3.390;2023-03-02T09:26:06;102214.84;;;6.33;65.61
23261;BME280;11799;47.740;-3.390;2023-03-02T09:28:33;102221.91;;;6.31;65.96
23261;BME280;11799;47.740;-3.390;2023-03-02T09:31:01;102223.63;;;6.32;65.88
23261;BME280;11799;47.740;-3.390;2023-03-02T09:33:27;102219.22;;;6.32;65.67
23261;BME280;11799;47.740;-3.390;2023-03-02T09:35:53;102217.47;;;6.33;66.03
23261;BME280;11799;47.740;-3.390;2023-03-02T09:38:20;102217.47;;;6.33;64.72
23261;BME280;11799;47.740;-3.390;2023-03-02T09:43:26;102213.72;;;6.38;66.14
23261;BME280;11799;47.740;-3.390;2023-03-02T09:51:30;102202.03;;;6.47;64.58
23261;BME280;11799;47.740;-3.390;2023-03-02T09:54:14;102215.19;;;6.45;63.41
23261;BME280;11799;47.740;-3.390;2023-03-02T09:56:47;102201.34;;;6.42;63.47
23261;BME280;11799;47.740;-3.390;2023-03-02T10:01:46;102197.44;;;6.52;64.99
23261;BME280;11799;47.740;-3.390;2023-03-02T10:04:40;102201.66;;;6.56;63.04
23261;BME280;11799;47.740;-3.390;2023-03-02T10:07:13;102198.81;;;6.62;64.26
23261;BME280;11799;47.740;-3.390;2023-03-02T10:09:40;102194.47;;;6.61;65.23
23261;BME280;11799;47.740;-3.390;2023-03-02T10:14:56;102196.84;;;6.67;63.09
23261;BME280;11799;47.740;-3.390;2023-03-02T10:17:52;102187.09;;;6.71;62.86
23261;BME280;11799;47.740;-3.390;2023-03-02T10:20:40;102193.75;;;6.79;63.88
23261;BME280;11799;47.740;-3.390;2023-03-02T10:23:29;102191.13;;;6.79;62.89
23261;BME280;11799;47.740;-3.390;2023-03-02T10:28:37;102194.97;;;6.92;61.71
23261;BME280;11799;47.740;-3.390;2023-03-02T10:31:19;102187.72;;;6.97;64.27
23261;BME280;11799;47.740;-3.390;2023-03-02T10:33:48;102194.25;;;7.09;64.14
23261;BME280;11799;47.740;-3.390;2023-03-02T10:36:28;102186.25;;;7.12;64.30
23261;BME280;11799;47.740;-3.390;2023-03-02T10:38:55;102183.53;;;7.14;63.37
23261;BME280;11799;47.740;-3.390;2023-03-02T10:41:47;102184.09;;;7.22;62.69
23261;BME280;11799;47.740;-3.390;2023-03-02T10:46:44;102186.25;;;7.33;61.81
23261;BME280;11799;47.740;-3.390;2023-03-02T10:49:30;102182.97;;;7.48;61.75
23261;BME280;11799;47.740;-3.390;2023-03-02T10:52:10;102182.28;;;7.63;62.72
23261;BME280;11799;47.740;-3.390;2023-03-02T10:54:37;102177.06;;;7.82;63.77
23261;BME280;11799;47.740;-3.390;2023-03-02T10:57:04;102179.75;;;8.01;60.37
23261;BME280;11799;47.740;-3.390;2023-03-02T10:59:44;102176.44;;;8.14;59.52
23261;BME280;11799;47.740;-3.390;2023-03-02T11:02:19;102173.97;;;8.30;60.22
23261;BME280;11799;47.740;-3.390;2023-03-02T11:05:42;102167.03;;;8.48;59.40
23261;BME280;11799;47.740;-3.390;2023-03-02T11:10:30;102177.06;;;8.76;57.63
23261;BME280;11799;47.740;-3.390;2023-03-02T11:13:00;102174.19;;;8.80;57.94
23261;BME280;11799;47.740;-3.390;2023-03-02T11:15:32;102172.13;;;8.87;56.76
23261;BME280;11799;47.740;-3.390;2023-03-02T11:18:33;102161.44;;;8.90;54.09
23261;BME280;11799;47.740;-3.390;2023-03-02T11:21:19;102165.69;;;8.92;54.84
23261;BME280;11799;47.740;-3.390;2023-03-02T11:26:53;102151.53;;;8.95;54.98
23261;BME280;11799;47.740;-3.390;2023-03-02T11:29:43;102155.38;;;8.88;56.91
23261;BME280;11799;47.740;-3.390;2023-03-02T11:34:56;102162.34;;;8.89;53.86
23261;BME280;11799;47.740;-3.390;2023-03-02T11:37:24;102158.03;;;8.88;54.44
23261;BME280;11799;47.740;-3.390;2023-03-02T11:40:12;102158.03;;;8.88;53.82
23261;BME280;11799;47.740;-3.390;2023-03-02T11:42:43;102151.19;;;8.84;54.79
23261;BME280;11799;47.740;-3.390;2023-03-02T11:47:38;102153.47;;;8.91;55.33
23261;BME280;11799;47.740;-3.390;2023-03-02T11:50:06;102152.22;;;8.99;54.47
23261;BME280;11799;47.740;-3.390;2023-03-02T11:52:37;102149.22;;;9.06;54.64
23261;BME280;11799;47.740;-3.390;2023-03-02T11:55:27;102150.06;;;9.07;52.83
23261;BME280;11799;47.740;-3.390;2023-03-02T11:57:58;102147.03;;;9.14;53.96
23261;BME280;11799;47.740;-3.390;2023-03-02T12:03:20;102145.19;;;9.16;53.47
23261;BME280;11799;47.740;-3.390;2023-03-02T12:06:00;102141.38;;;9.22;53.54
23261;BME280;11799;47.740;-3.390;2023-03-02T12:11:02;102151.09;;;9.37;53.81
23261;BME280;11799;47.740;-3.390;2023-03-02T12:13:38;102148.09;;;9.45;53.37
23261;BME280;11799;47.740;-3.390;2023-03-02T12:18:58;102132.56;;;9.56;55.02
23261;BME280;11799;47.740;-3.390;2023-03-02T12:21:40;102118.44;;;9.57;52.39
23261;BME280;11799;47.740;-3.390;2023-03-02T12:24:22;102134.72;;;9.65;52.50
23261;BME280;11799;47.740;-3.390;2023-03-02T12:27:03;102117.69;;;9.71;51.58
23261;BME280;11799;47.740;-3.390;2023-03-02T12:29:47;102113.28;;;9.71;51.96
23261;BME280;11799;47.740;-3.390;2023-03-02T12:37:25;102100.78;;;9.90;52.52
23261;BME280;11799;47.740;-3.390;2023-03-02T12:42:48;102102.25;;;10.12;50.36
23261;BME280;11799;47.740;-3.390;2023-03-02T12:47:45;102097.34;;;10.21;49.57
23261;BME280;11799;47.740;-3.390;2023-03-02T12:50:19;102093.50;;;10.27;49.79
23261;BME280;11799;47.740;-3.390;2023-03-02T12:53:00;102089.91;;;10.28;49.33
23261;BME280;11799;47.740;-3.390;2023-03-02T12:55:27;102090.78;;;10.29;49.91
23261;BME280;11799;47.740;-3.390;2023-03-02T12:57:58;102087.28;;;10.28;51.17
23261;BME280;11799;47.740;-3.390;2023-03-02T13:00:31;102082.00;;;10.28;52.03
23261;BME280;11799;47.740;-3.390;2023-03-02T13:02:58;102080.38;;;10.25;52.14
23261;BME280;11799;47.740;-3.390;2023-03-02T13:05:34;102074.84;;;10.30;50.66
23261;BME280;11799;47.740;-3.390;2023-03-02T13:08:05;102086.69;;;10.39;49.90
23261;BME280;11799;47.740;-3.390;2023-03-02T13:10:36;102078.84;;;10.37;50.67
23261;BME280;11799;47.740;-3.390;2023-03-02T13:13:03;102084.03;;;10.39;50.41
23261;BME280;11799;47.740;-3.390;2023-03-02T13:15:47;102073.91;;;10.31;50.60
23261;BME280;11799;47.740;-3.390;2023-03-02T13:18:13;102074.75;;;10.32;51.83
23261;BME280;11799;47.740;-3.390;2023-03-02T13:20:39;102065.41;;;10.26;51.91
23261;BME280;11799;47.740;-3.390;2023-03-02T13:23:05;102088.72;;;10.34;51.78
23261;BME280;11799;47.740;-3.390;2023-03-02T13:25:30;102073.16;;;10.29;52.25
23261;BME280;11799;47.740;-3.390;2023-03-02T13:27:58;102068.72;;;10.30;52.46
23261;BME280;11799;47.740;-3.390;2023-03-02T13:30:28;102074.69;;;10.33;51.70
23261;BME280;11799;47.740;-3.390;2023-03-02T13:32:59;102068.63;;;10.31;52.34
23261;BME280;11799;47.740;-3.390;2023-03-02T13:35:31;102071.44;;;10.28;52.28
23261;BME280;11799;47.740;-3.390;2023-03-02T13:38:11;102073.78;;;10.17;53.23
23261;BME280;11799;47.740;-3.390;2023-03-02T13:40:49;102070.09;;;10.21;52.22
23261;BME280;11799;47.740;-3.390;2023-03-02T13:43:37;102064.19;;;10.16;52.58
23261;BME280;11799;47.740;-3.390;2023-03-02T13:46:25;102068.19;;;10.07;52.97
23261;BME280;11799;47.740;-3.390;2023-03-02T13:48:56;102066.56;;;10.05;52.43
23261;BME280;11799;47.740;-3.390;2023-03-02T13:51:22;102058.91;;;10.00;52.27